Terminal Aerodrome Forecast
Issued by NWS Kansas City/Pleasant Hill, MO

Home | Current Version | Previous Version | Text Only | Print | Product List | Glossary On
Versions: 1 2 3 4 5 6 7 8 9 10 11 12 13 14 15 16 17 18 19 20 21 22 23 24
576
FTUS43 KEAX 260520
TAFMCI
TAF
KMCI 260520Z 2606/2706 32007KT P6SM OVC006
     FM261600 27005KT P6SM BKN010
     FM262000 25005KT P6SM BKN025
     FM262300 VRB04KT P6SM BKN040=

USA.gov is the U.S. government's official web portal to all federal, state and local government web resources and services.